Florida, Massachusetts
Current Conditions -  °F | °C
As of 6:03 AM on Thursday 18 Dec 2014 (Local Time) from KAQW Reporting Station
Light Snow Light Snow  
Wind Chill: 22°   Ceiling: 4500
Heat Index: 33°   Visibility: 6mi
Dew Point: 27°   Wind: 18mph
Humidity: 78%   Direction: 260°W
Pressure: 29.81"   Gusts: 30mph
Location:  42.6996°N, 73.0936°W
Report Text: KAQW 181103Z AUTO 26016G26KT 6SM -SN FEW020 SCT025 OVC045 01/M03 A2981 RMK AO2 PK WND 25026/1058 P0000 T00061028
Loading
Personal Weather Stations






























Interactive Weather Map New forecast layout! Learn more

10-Day Weather Forecast

Advertisements
Track Severe Weather on mobile